Accueil
METAR-TAF:

METAR-TAF

Aéroports :

Aéroport Adolfo-Suárez de Madrid-Barajas

Madrid, Espagne

latitude: 40-27N, longitude: 003-33W, altitude: 609 m

Observation

Le bulletin a été fait il y a 37 minutes, à 18:00 UTC
Vent 2 kt de nord/nord-ouest
Température 18°C
Humidité 49%
Pression 1022 hPa
Visibilité 10 km ou plus
pas de nuages en-dessous de 1500 mètres et pas de cumulonimbus.

METAR: LEMD 221800Z 33002KT CAVOK 18/07 Q1022 NOSIG

Heure: 20:37 (18:37 UTC)

Prévision

Le bulletin a été fait il y a 1 heure et 37 minutes, à 17:00 UTC
Prévision valable du 22 à 18 UTC au 23 à 24 UTC
Vent 6 kt de nord-est
Visibilité 10 km ou plus
pas de nuages en-dessous de 1500 mètres et pas de cumulonimbus.

TAF: LEMD 221700Z 2218/2324 05006KT CAVOK TX22/2314Z TN10/2304Z

Observations et prévisions météorologiques de plus de 4000 aéroports (messages METAR et TAF).

Les stations disponibles sont représentées par des disques jaunes et rouges sur la carte.

Passer la souris dessus pour voir le nom de la station.

Cliquer dessus pour voir les observations et prévisions météorologiques.

Pour changer de carte: cliquez sur les boutons verts avec une croix noire pour zoomer, sur le bouton vert avec un tiret pour effectuer un zoom arrière, ou sur les flèches vertes pour les cartes adjacentes.


METAR-TAF: